createdAt,value
2018-10-02T00:02:08.846Z,0.80
2018-10-02T00:04:37.352Z,1.27
2018-10-02T00:07:06.330Z,1.43
2018-10-02T00:09:35.006Z,2.03
2018-10-02T00:12:10.081Z,1.47
2018-10-02T00:14:38.830Z,0.97
2018-10-02T00:17:07.549Z,0.80
2018-10-02T00:19:36.378Z,1.83
2018-10-02T00:22:04.616Z,1.03
2018-10-02T00:24:32.858Z,1.23
2018-10-02T00:27:01.108Z,2.13
2018-10-02T00:29:29.349Z,2.03
2018-10-02T00:31:57.747Z,0.90
2018-10-02T00:34:26.009Z,2.50
2018-10-02T00:36:54.566Z,1.17
2018-10-02T00:39:22.813Z,3.00
2018-10-02T00:41:51.069Z,2.03
2018-10-02T00:44:19.340Z,1.30
2018-10-02T00:46:48.286Z,2.00
2018-10-02T00:49:16.537Z,1.83
2018-10-02T00:51:45.216Z,1.83
2018-10-02T00:54:13.493Z,2.00
2018-10-02T00:56:41.761Z,2.00
2018-10-02T00:59:10.661Z,2.10
2018-10-02T01:01:39.362Z,2.40
2018-10-02T01:04:07.637Z,3.30
2018-10-02T01:06:35.921Z,2.87
2018-10-02T01:09:07.502Z,2.50
2018-10-02T01:11:36.208Z,3.10
2018-10-02T01:14:05.285Z,3.53
2018-10-02T01:16:34.145Z,2.43
2018-10-02T01:19:02.464Z,2.10
2018-10-02T01:21:31.370Z,2.20
2018-10-02T01:23:59.613Z,2.50
2018-10-02T01:26:27.874Z,2.50
2018-10-02T01:28:56.153Z,1.80
2018-10-02T01:31:24.834Z,2.77
2018-10-02T01:33:53.181Z,2.57
2018-10-02T01:36:21.427Z,1.60
2018-10-02T01:38:50.109Z,2.33
2018-10-02T01:41:18.357Z,2.97
2018-10-02T01:43:46.593Z,2.20
2018-10-02T01:46:15.381Z,1.50
2018-10-02T01:48:43.710Z,2.60
2018-10-02T01:51:12.557Z,3.13
2018-10-02T01:53:41.106Z,3.03
2018-10-02T01:56:10.249Z,1.67
2018-10-02T01:58:39.341Z,2.80
2018-10-02T02:01:07.643Z,1.77
2018-10-02T02:03:36.197Z,2.07
2018-10-02T02:06:04.472Z,3.30
2018-10-02T02:08:33.113Z,2.73
2018-10-02T02:11:01.362Z,1.93
2018-10-02T02:13:30.042Z,2.13
2018-10-02T02:15:59.009Z,3.93
2018-10-02T02:18:27.293Z,2.77
2018-10-02T02:20:55.537Z,4.77
2018-10-02T02:23:23.814Z,3.67
2018-10-02T02:25:52.345Z,4.20
2018-10-02T02:28:21.007Z,5.47
2018-10-02T02:30:49.821Z,3.83
2018-10-02T02:33:18.050Z,4.13
2018-10-02T02:35:46.302Z,4.77
2018-10-02T02:38:14.721Z,2.37
2018-10-02T02:40:43.018Z,2.77
2018-10-02T02:43:11.365Z,3.00
2018-10-02T02:45:39.685Z,6.43
2018-10-02T02:48:15.661Z,4.10
2018-10-02T02:50:50.184Z,3.97
2018-10-02T02:53:18.695Z,5.60
2018-10-02T02:55:47.711Z,3.07
2018-10-02T02:58:15.961Z,2.70
2018-10-02T03:00:44.745Z,3.97
2018-10-02T03:03:13.517Z,4.40
2018-10-02T03:05:41.788Z,4.77
2018-10-02T03:08:10.392Z,4.10
2018-10-02T03:10:38.645Z,3.70
2018-10-02T03:13:06.898Z,4.30
2018-10-02T03:15:35.909Z,5.40
2018-10-02T03:18:04.750Z,3.97
2018-10-02T03:20:33.010Z,6.77
2018-10-02T03:23:01.267Z,5.03
2018-10-02T03:25:29.693Z,5.77
2018-10-02T03:27:57.990Z,5.40
2018-10-02T03:30:26.362Z,5.30
2018-10-02T03:32:54.656Z,5.63
2018-10-02T03:35:22.913Z,3.50
2018-10-02T03:37:51.221Z,5.43
2018-10-02T03:40:19.559Z,7.20
2018-10-02T03:42:48.176Z,5.10
2018-10-02T03:45:16.506Z,6.17
2018-10-02T03:47:45.598Z,5.43
2018-10-02T03:50:14.607Z,6.40
2018-10-02T03:52:42.855Z,7.53
2018-10-02T03:55:11.114Z,6.13
2018-10-02T03:57:39.390Z,9.27
2018-10-02T04:00:08.144Z,5.70
2018-10-02T04:02:36.698Z,7.07
2018-10-02T04:05:05.009Z,5.13
2018-10-02T04:07:34.564Z,4.27
2018-10-02T04:10:02.819Z,4.07
2018-10-02T04:12:31.293Z,4.23
2018-10-02T04:15:00.210Z,4.63
2018-10-02T04:17:28.847Z,6.60
2018-10-02T04:19:57.097Z,6.10
2018-10-02T04:22:25.328Z,6.43
2018-10-02T04:24:53.625Z,5.50
2018-10-02T04:27:21.873Z,6.03
2018-10-02T04:29:51.525Z,5.47
2018-10-02T04:32:20.337Z,5.67
2018-10-02T04:34:48.605Z,6.47
2018-10-02T04:37:16.854Z,6.07
2018-10-02T04:39:45.134Z,4.97
2018-10-02T04:42:13.407Z,5.23
2018-10-02T04:44:41.778Z,5.00
2018-10-02T04:47:10.258Z,5.37
2018-10-02T04:49:38.535Z,4.33
2018-10-02T04:52:07.044Z,6.17
2018-10-02T04:54:35.314Z,7.30
2018-10-02T04:57:03.977Z,4.70
2018-10-02T04:59:32.877Z,5.50
2018-10-02T05:02:01.729Z,4.87
2018-10-02T05:04:30.037Z,6.03
2018-10-02T05:06:58.293Z,7.13
2018-10-02T05:09:26.767Z,6.70
2018-10-02T05:11:55.031Z,4.87
2018-10-02T05:14:25.454Z,4.77
2018-10-02T05:16:54.030Z,5.53
2018-10-02T05:19:22.774Z,5.37
2018-10-02T05:21:51.058Z,5.80
2018-10-02T05:24:19.355Z,5.00
2018-10-02T05:26:47.650Z,4.30
2018-10-02T05:29:15.920Z,5.77
2018-10-02T05:31:44.238Z,4.60
2018-10-02T05:34:13.030Z,5.60
2018-10-02T05:36:41.305Z,9.40
2018-10-02T05:39:09.686Z,6.10
2018-10-02T05:41:38.039Z,8.47
2018-10-02T05:44:06.463Z,5.20
2018-10-02T05:46:34.835Z,6.63
2018-10-02T05:49:03.273Z,7.13
2018-10-02T05:51:32.116Z,6.17
2018-10-02T05:54:00.357Z,7.03
2018-10-02T05:56:28.638Z,6.63
2018-10-02T05:58:57.277Z,7.43
2018-10-02T06:01:25.565Z,9.17
2018-10-02T06:03:54.623Z,8.17
2018-10-02T06:06:23.337Z,5.97
2018-10-02T06:08:51.885Z,6.97
2018-10-02T06:11:20.444Z,6.43
2018-10-02T06:13:48.719Z,5.27
2018-10-02T06:16:17.973Z,8.03
2018-10-02T06:18:46.268Z,5.37
2018-10-02T06:21:14.575Z,6.37
2018-10-02T06:23:42.845Z,8.67
2018-10-02T06:26:11.133Z,8.30
2018-10-02T06:28:39.518Z,7.40
2018-10-02T06:31:07.842Z,7.87
2018-10-02T06:33:36.617Z,5.80
2018-10-02T06:36:04.885Z,8.27
2018-10-02T06:38:33.870Z,7.83
2018-10-02T06:41:02.049Z,10.30
2018-10-02T06:43:31.206Z,9.00
2018-10-02T06:45:59.757Z,7.73
2018-10-02T06:48:28.051Z,9.17
2018-10-02T06:50:57.189Z,8.00
2018-10-02T06:53:25.449Z,5.37
2018-10-02T06:55:53.726Z,10.50
2018-10-02T06:58:22.197Z,7.30
2018-10-02T07:00:50.908Z,8.57
2018-10-02T07:03:20.134Z,9.57
2018-10-02T07:05:49.070Z,8.87
2018-10-02T07:08:17.837Z,7.87
2018-10-02T07:10:46.418Z,8.33
2018-10-02T07:13:14.711Z,5.50
2018-10-02T07:15:43.782Z,10.13
2018-10-02T07:18:12.054Z,5.97
2018-10-02T07:20:40.484Z,7.80
2018-10-02T07:23:08.702Z,10.67
2018-10-02T07:25:36.938Z,5.77
2018-10-02T07:28:05.426Z,6.63
2018-10-02T07:30:33.656Z,6.07
2018-10-02T07:33:02.007Z,7.80
2018-10-02T07:35:30.946Z,8.30
2018-10-02T07:37:59.213Z,9.30
2018-10-02T07:40:27.638Z,9.97
2018-10-02T07:42:55.886Z,6.13
2018-10-02T07:45:24.158Z,7.43
2018-10-02T07:47:52.576Z,6.60
2018-10-02T07:50:21.333Z,9.27
2018-10-02T07:52:49.593Z,6.33
2018-10-02T07:55:18.531Z,7.00
2018-10-02T07:57:47.218Z,5.73
2018-10-02T08:00:16.162Z,7.13
2018-10-02T08:02:45.224Z,7.03
2018-10-02T08:05:13.490Z,8.07
2018-10-02T08:07:42.191Z,5.27
2018-10-02T08:10:10.486Z,7.27
2018-10-02T08:12:39.751Z,6.20
2018-10-02T08:15:09.004Z,7.78
2018-10-02T08:17:37.837Z,6.47
2018-10-02T08:20:06.263Z,6.80
2018-10-02T08:22:34.370Z,4.97
2018-10-02T08:25:03.227Z,6.20
2018-10-02T08:27:31.476Z,4.77
2018-10-02T08:29:59.819Z,6.33
2018-10-02T08:32:28.081Z,6.85
2018-10-02T08:34:56.327Z,4.63
2018-10-02T08:37:24.697Z,4.28
2018-10-02T08:39:52.990Z,4.22
2018-10-02T08:42:21.272Z,6.00
2018-10-02T08:44:49.558Z,6.90
2018-10-02T08:47:17.862Z,4.53
2018-10-02T08:49:46.889Z,5.67
2018-10-02T08:52:15.815Z,5.50
2018-10-02T08:57:04.682Z,3.47
2018-10-02T08:59:32.961Z,5.10
2018-10-02T09:02:01.898Z,3.67
2018-10-02T09:04:30.198Z,3.40
2018-10-02T09:06:58.666Z,4.90
2018-10-02T09:09:27.263Z,7.67
2018-10-02T09:11:55.537Z,4.57
2018-10-02T09:14:23.895Z,4.25
2018-10-02T09:16:52.646Z,3.97
2018-10-02T09:19:20.931Z,5.23
2018-10-02T09:21:49.818Z,4.17
2018-10-02T09:24:18.776Z,3.60
2018-10-02T09:26:47.038Z,6.17
2018-10-02T09:29:15.321Z,4.37
2018-10-02T09:31:49.114Z,7.33
2018-10-02T09:34:24.564Z,4.07
2018-10-02T09:36:58.157Z,3.93
2018-10-02T09:39:31.980Z,5.87
2018-10-02T09:42:05.426Z,5.27
2018-10-02T09:44:34.270Z,5.83
2018-10-02T09:47:02.542Z,5.30
2018-10-02T09:49:30.816Z,4.43
2018-10-02T09:51:59.854Z,4.07
2018-10-02T09:54:28.102Z,4.37
2018-10-02T09:56:57.130Z,3.83
2018-10-02T09:59:26.085Z,5.73
2018-10-02T10:02:00.935Z,6.07
2018-10-02T10:04:29.681Z,4.77
2018-10-02T10:06:58.338Z,6.97
2018-10-02T10:09:26.837Z,4.60
2018-10-02T10:11:55.089Z,2.63
2018-10-02T10:14:23.334Z,4.43
2018-10-02T10:16:52.004Z,6.83
2018-10-02T10:19:20.126Z,3.10
2018-10-02T10:21:48.405Z,5.07
2018-10-02T10:24:16.697Z,5.67
2018-10-02T10:26:44.954Z,4.73
2018-10-02T10:29:13.281Z,4.53
2018-10-02T10:31:41.594Z,5.83
2018-10-02T10:34:10.315Z,5.13
2018-10-02T10:36:38.566Z,3.87
2018-10-02T10:39:07.460Z,5.50
2018-10-02T10:41:35.726Z,4.47
2018-10-02T10:44:04.005Z,5.00
2018-10-02T10:46:32.351Z,2.80
2018-10-02T10:49:00.582Z,3.70
2018-10-02T10:51:29.762Z,3.45
2018-10-02T10:53:58.046Z,4.40
2018-10-02T10:56:26.987Z,3.37
2018-10-02T10:58:55.323Z,4.43
2018-10-02T11:01:24.226Z,2.75
2018-10-02T11:03:53.266Z,6.93
2018-10-02T11:06:21.518Z,5.28
2018-10-02T11:08:50.635Z,1.73
2018-10-02T11:11:18.881Z,4.47
2018-10-02T11:13:47.135Z,4.57
2018-10-02T11:16:15.926Z,2.63
2018-10-02T11:18:44.198Z,4.70
2018-10-02T11:21:12.462Z,4.30
2018-10-02T11:23:40.813Z,2.40
2018-10-02T11:26:09.498Z,4.40
2018-10-02T11:28:38.496Z,2.07
2018-10-02T11:31:07.230Z,3.00
2018-10-02T11:33:35.487Z,4.72
2018-10-02T11:36:03.762Z,4.60
2018-10-02T11:38:32.019Z,5.90
2018-10-02T11:41:00.372Z,2.77
2018-10-02T11:43:28.924Z,2.70
2018-10-02T11:45:57.146Z,3.05
2018-10-02T11:48:25.441Z,2.40
2018-10-02T11:50:54.647Z,2.97
2018-10-02T11:53:23.639Z,1.67
2018-10-02T11:55:52.640Z,1.80
2018-10-02T11:58:20.858Z,2.63
2018-10-02T12:00:49.198Z,3.50
2018-10-02T12:03:18.052Z,2.80
2018-10-02T12:05:46.306Z,3.63
2018-10-02T12:08:16.254Z,5.00
2018-10-02T12:10:44.601Z,2.43
2018-10-02T12:13:12.932Z,3.73
2018-10-02T12:17:10.613Z,4.13
2018-10-02T12:19:38.917Z,2.70
2018-10-02T12:22:07.755Z,2.97
2018-10-02T12:24:36.029Z,3.13
2018-10-02T12:27:04.306Z,3.20
2018-10-02T12:29:32.586Z,2.57
2018-10-02T12:32:00.869Z,1.83
2018-10-02T12:34:29.239Z,4.40
2018-10-02T12:36:57.529Z,4.80
2018-10-02T12:39:25.903Z,3.27
2018-10-02T12:41:54.099Z,3.50
2018-10-02T12:44:22.394Z,3.40
2018-10-02T12:46:50.832Z,2.43
2018-10-02T12:49:19.146Z,4.13
2018-10-02T12:51:48.194Z,4.73
2018-10-02T12:54:16.450Z,3.13
2018-10-02T12:56:45.333Z,2.47
2018-10-02T12:59:13.671Z,4.07
2018-10-02T13:01:42.834Z,4.67
2018-10-02T13:04:11.114Z,4.07
2018-10-02T13:06:40.382Z,5.03
2018-10-02T13:09:09.870Z,3.93
2018-10-02T13:11:38.392Z,4.07
2018-10-02T13:14:07.807Z,2.07
2018-10-02T13:16:36.423Z,2.57
2018-10-02T13:19:04.639Z,3.67
2018-10-02T13:21:32.896Z,3.43
2018-10-02T13:24:01.240Z,2.97
2018-10-02T13:26:29.482Z,2.67
2018-10-02T13:28:57.886Z,2.17
2018-10-02T13:31:26.198Z,2.50
2018-10-02T13:33:54.462Z,2.73
2018-10-02T13:36:22.768Z,4.20
2018-10-02T13:38:51.079Z,2.93
2018-10-02T13:41:19.962Z,3.57
2018-10-02T13:43:48.237Z,3.20
2018-10-02T13:46:16.581Z,3.03
2018-10-02T13:48:45.246Z,3.33
2018-10-02T13:51:13.946Z,3.67
2018-10-02T13:53:43.299Z,3.30
2018-10-02T13:56:12.170Z,3.90
2018-10-02T13:58:40.450Z,3.97
2018-10-02T14:01:09.641Z,7.27
2018-10-02T14:03:38.513Z,3.57
2018-10-02T14:06:06.886Z,2.73
2018-10-02T14:08:35.992Z,2.40
2018-10-02T14:11:04.268Z,2.27
2018-10-02T14:13:32.558Z,2.93
2018-10-02T14:16:01.337Z,2.73
2018-10-02T14:18:29.702Z,2.40
2018-10-02T14:20:57.987Z,4.10
2018-10-02T14:23:26.364Z,2.70
2018-10-02T14:25:54.624Z,3.83
2018-10-02T14:28:23.306Z,3.10
2018-10-02T14:30:51.618Z,2.50
2018-10-02T14:33:19.898Z,3.03
2018-10-02T14:35:48.197Z,1.70
2018-10-02T14:38:16.453Z,2.53
2018-10-02T14:40:44.797Z,4.07
2018-10-02T14:43:13.179Z,2.50
2018-10-02T14:45:41.390Z,3.30
2018-10-02T14:48:10.040Z,1.93
2018-10-02T14:50:39.075Z,2.77
2018-10-02T14:53:07.410Z,2.70
2018-10-02T14:55:35.739Z,3.10
2018-10-02T14:58:04.462Z,2.80
2018-10-02T15:00:32.803Z,2.67
2018-10-02T15:03:01.456Z,1.87
2018-10-02T15:05:29.710Z,3.40
2018-10-02T15:07:58.726Z,3.63
2018-10-02T15:10:27.014Z,3.83
2018-10-02T15:12:55.284Z,3.10
2018-10-02T15:15:24.063Z,2.37
2018-10-02T15:17:52.381Z,6.00
2018-10-02T15:20:20.621Z,3.67
2018-10-02T15:22:49.640Z,3.83
2018-10-02T15:25:17.953Z,3.07
2018-10-02T15:27:46.209Z,3.33
2018-10-02T15:30:14.502Z,2.53
2018-10-02T15:32:43.428Z,3.20
2018-10-02T15:35:11.782Z,6.20
2018-10-02T15:37:40.601Z,2.40
2018-10-02T15:40:08.972Z,1.83
2018-10-02T15:42:37.361Z,1.77
2018-10-02T15:45:06.049Z,1.63
2018-10-02T15:47:34.331Z,1.87
2018-10-02T15:50:03.260Z,3.07
2018-10-02T15:52:31.521Z,2.20
2018-10-02T15:54:59.761Z,1.27
2018-10-02T15:57:28.690Z,3.13
2018-10-02T15:59:56.946Z,3.13
2018-10-02T16:02:25.554Z,2.50
2018-10-02T16:04:54.449Z,3.10
2018-10-02T16:07:23.466Z,5.17
2018-10-02T16:09:51.763Z,4.13
2018-10-02T16:12:20.015Z,4.13
2018-10-02T16:14:48.689Z,5.13
2018-10-02T16:17:17.499Z,2.70
2018-10-02T16:19:45.752Z,2.23
2018-10-02T16:22:14.076Z,3.33
2018-10-02T16:24:43.110Z,3.03
2018-10-02T16:27:11.361Z,3.07
2018-10-02T16:29:39.658Z,1.83
2018-10-02T16:32:08.397Z,1.77
2018-10-02T16:34:48.979Z,3.33
2018-10-02T16:37:05.027Z,5.53
2018-10-02T16:39:33.405Z,5.07
2018-10-02T16:44:42.343Z,4.67
2018-10-02T16:47:10.753Z,2.73
2018-10-02T16:49:39.070Z,2.73
2018-10-02T16:52:07.886Z,3.43
2018-10-02T16:54:36.360Z,4.77
2018-10-02T16:57:04.678Z,3.70
2018-10-02T16:59:33.230Z,3.77
2018-10-02T17:02:01.786Z,2.83
2018-10-02T17:04:30.090Z,4.20
2018-10-02T17:06:58.419Z,4.53
2018-10-02T17:09:27.481Z,5.57
2018-10-02T17:11:56.382Z,2.30
2018-10-02T17:14:24.669Z,3.77
2018-10-02T17:16:53.454Z,3.03
2018-10-02T17:19:21.781Z,4.27
2018-10-02T17:21:50.082Z,3.43
2018-10-02T17:24:18.921Z,3.10
2018-10-02T17:26:47.247Z,6.40
2018-10-02T17:29:15.543Z,4.33
2018-10-02T17:31:43.866Z,3.77
2018-10-02T17:34:12.494Z,3.83
2018-10-02T17:36:40.771Z,4.17
2018-10-02T17:39:10.350Z,3.67
2018-10-02T17:41:39.584Z,3.47
2018-10-02T17:44:08.541Z,3.97
2018-10-02T17:46:36.811Z,5.50
2018-10-02T17:49:05.158Z,4.30
2018-10-02T17:51:33.963Z,4.57
2018-10-02T17:54:02.306Z,4.00
2018-10-02T17:56:31.134Z,3.47
2018-10-02T17:58:59.416Z,3.40
2018-10-02T18:01:27.819Z,2.83
2018-10-02T18:03:56.593Z,2.90
2018-10-02T18:06:24.869Z,3.97
2018-10-02T18:08:53.546Z,4.00
2018-10-02T18:11:21.810Z,5.30
2018-10-02T18:13:50.119Z,3.93
2018-10-02T18:16:18.994Z,3.23
2018-10-02T18:18:47.305Z,4.33
2018-10-02T18:21:15.587Z,3.70
2018-10-02T18:23:43.914Z,2.43
2018-10-02T18:26:12.235Z,1.57
2018-10-02T18:28:40.842Z,2.13
2018-10-02T18:31:09.197Z,4.27
2018-10-02T18:33:37.828Z,4.07
2018-10-02T18:36:06.166Z,1.67
2018-10-02T18:38:34.474Z,4.70
2018-10-02T18:41:03.010Z,2.27
2018-10-02T18:43:31.812Z,3.27
2018-10-02T18:46:00.538Z,3.17
2018-10-02T18:48:28.837Z,3.97
2018-10-02T18:50:57.623Z,4.90
2018-10-02T18:53:26.071Z,3.50
2018-10-02T18:55:54.432Z,4.73
2018-10-02T18:58:23.057Z,2.87
2018-10-02T19:00:51.329Z,1.50
2018-10-02T19:03:20.534Z,2.97
2018-10-02T19:05:49.039Z,6.03
2018-10-02T19:08:22.104Z,2.60
2018-10-02T19:11:58.575Z,2.47
2018-10-02T19:14:27.449Z,2.67
2018-10-02T19:16:56.289Z,5.53
2018-10-02T19:19:29.853Z,2.30
2018-10-02T19:21:58.121Z,4.00
2018-10-02T19:24:26.419Z,1.57
2018-10-02T19:26:54.734Z,2.90
2018-10-02T19:29:23.302Z,3.40
2018-10-02T19:31:56.873Z,2.43
2018-10-02T19:34:25.527Z,2.50
2018-10-02T19:36:53.859Z,4.63
2018-10-02T19:39:24.261Z,3.00
2018-10-02T19:41:53.378Z,2.40
2018-10-02T19:44:22.041Z,1.90
2018-10-02T19:46:54.798Z,3.47
2018-10-02T19:49:24.464Z,2.63
2018-10-02T19:52:10.114Z,2.83
2018-10-02T19:54:38.422Z,2.10
2018-10-02T19:57:08.741Z,2.50
2018-10-02T19:59:37.080Z,2.23
2018-10-02T20:02:05.702Z,2.73
2018-10-02T20:04:34.078Z,3.23
2018-10-02T20:07:02.344Z,2.73
2018-10-02T20:09:31.363Z,2.90
2018-10-02T20:11:59.649Z,2.00
2018-10-02T20:14:28.001Z,2.63
2018-10-02T20:16:57.259Z,2.97
2018-10-02T20:19:26.733Z,3.40
2018-10-02T20:21:55.030Z,3.03
2018-10-02T20:24:23.332Z,4.27
2018-10-02T20:26:51.651Z,2.27
2018-10-02T20:29:19.973Z,4.23
2018-10-02T20:31:50.514Z,2.90
2018-10-02T20:34:18.825Z,3.00
2018-10-02T20:36:47.155Z,2.07
2018-10-02T20:39:15.428Z,1.80
2018-10-02T20:41:44.180Z,2.13
2018-10-02T20:44:13.076Z,4.00
2018-10-02T20:46:41.341Z,3.20
2018-10-02T20:49:09.962Z,2.03
2018-10-02T20:51:38.633Z,2.83
2018-10-02T20:54:06.904Z,2.30
2018-10-02T20:56:35.206Z,4.70
2018-10-02T20:59:03.496Z,2.77
2018-10-02T21:01:31.816Z,2.33
2018-10-02T21:04:01.262Z,3.13
2018-10-02T21:06:29.783Z,3.93
2018-10-02T21:08:58.373Z,3.07
2018-10-02T21:11:26.720Z,4.10
2018-10-02T21:13:55.246Z,3.37
2018-10-02T21:16:23.982Z,2.33
2018-10-02T21:18:52.281Z,3.10
2018-10-02T21:21:21.338Z,2.20
2018-10-02T21:23:49.635Z,3.00
2018-10-02T21:26:18.204Z,5.33
2018-10-02T21:28:46.584Z,2.67
2018-10-02T21:31:14.842Z,5.17
2018-10-02T21:33:43.525Z,3.67
2018-10-02T21:36:11.774Z,2.57
2018-10-02T21:38:40.003Z,2.40
2018-10-02T21:41:08.301Z,3.20
2018-10-02T21:43:36.937Z,2.43
2018-10-02T21:46:05.632Z,2.80
2018-10-02T21:48:33.965Z,2.00
2018-10-02T21:51:02.782Z,2.00
2018-10-02T21:53:31.041Z,2.30
2018-10-02T21:55:59.362Z,3.03
2018-10-02T21:58:28.198Z,3.67
2018-10-02T22:01:01.873Z,2.80
2018-10-02T22:05:59.610Z,2.33
2018-10-02T22:08:28.127Z,5.33
2018-10-02T22:10:56.421Z,3.27
2018-10-02T22:13:25.358Z,3.17
2018-10-02T22:15:54.230Z,4.17
2018-10-02T22:18:23.200Z,3.67
2018-10-02T22:20:51.577Z,3.20
2018-10-02T22:23:19.852Z,6.47
2018-10-02T22:25:48.168Z,3.87
2018-10-02T22:28:16.517Z,3.30
2018-10-02T22:30:44.858Z,5.20
2018-10-02T22:33:13.201Z,3.70
2018-10-02T22:35:41.438Z,2.97
2018-10-02T22:38:09.721Z,2.10
2018-10-02T22:40:38.030Z,4.27
2018-10-02T22:43:06.949Z,2.20
2018-10-02T22:45:35.635Z,4.63
2018-10-02T22:48:03.915Z,4.17
2018-10-02T22:50:32.949Z,6.67
2018-10-02T22:53:01.211Z,3.53
2018-10-02T22:55:29.737Z,2.83
2018-10-02T22:57:58.006Z,2.10
2018-10-02T23:00:26.259Z,3.30
2018-10-02T23:02:55.238Z,2.10
2018-10-02T23:05:23.546Z,2.93
2018-10-02T23:07:52.581Z,3.67
2018-10-02T23:10:20.878Z,3.23
2018-10-02T23:12:49.614Z,3.20
2018-10-02T23:15:18.929Z,3.40
2018-10-02T23:17:47.906Z,6.13
2018-10-02T23:20:16.196Z,2.77
2018-10-02T23:22:44.487Z,3.57
2018-10-02T23:25:13.340Z,3.57
2018-10-02T23:27:41.687Z,2.77
2018-10-02T23:30:09.954Z,3.73
2018-10-02T23:32:38.291Z,6.20
2018-10-02T23:35:07.206Z,3.17
2018-10-02T23:37:35.516Z,2.40
2018-10-02T23:40:03.798Z,2.73
2018-10-02T23:42:33.138Z,3.83
2018-10-02T23:45:02.017Z,3.33
2018-10-02T23:47:30.257Z,4.93
2018-10-02T23:49:58.806Z,3.47
2018-10-02T23:52:27.534Z,3.13
2018-10-02T23:54:55.782Z,2.27
2018-10-02T23:57:24.128Z,3.13
2018-10-02T23:59:52.446Z,4.03
